Time;durP1;ratioP1;P1;durP2;ratioP2;P2;SDS_P1;SDS_P2;PMS_P1;PMS_P2;Temp;Humidity;BMP_temperature;BMP_pressure;BME280_temperature;BME280_humidity;BME280_pressure;Samples;Min_cycle;Max_cycle;Signal;HPM_P1;HPM_P2
2024/02/14 00:00:01;;;;;;;2.63;2.17;;;;;;;1.42;100.00;93326.13;2051600;28;20045;-83
2024/02/14 00:01:02;;;;;;;3.38;2.03;;;;;;;1.51;100.00;93316.09;2054611;28;20033;-83
2024/02/14 00:02:04;;;;;;;2.17;1.75;;;;;;;1.57;100.00;93336.88;2071212;28;20057;-81
2024/02/14 00:03:06;;;;;;;2.58;1.80;;;;;;;1.84;100.00;93337.63;2080752;28;20031;-82
2024/02/14 00:04:07;;;;;;;3.08;1.95;;;;;;;1.72;100.00;93342.00;2081698;28;20090;-81
2024/02/14 00:05:10;;;;;;;3.00;1.90;;;;;;;1.70;100.00;93346.84;2092325;28;20031;-81
2024/02/14 00:06:13;;;;;;;3.08;1.80;;;;;;;1.60;100.00;93338.81;2099197;28;20024;-84
2024/02/14 00:07:14;;;;;;;2.25;1.85;;;;;;;1.60;100.00;93341.44;2089639;28;20072;-82
2024/02/14 00:08:15;;;;;;;3.03;2.00;;;;;;;1.42;100.00;93341.91;2089797;28;20032;-83
2024/02/14 00:09:16;;;;;;;2.20;1.70;;;;;;;1.56;100.00;93351.16;2084260;28;20033;-82
2024/02/14 00:10:17;;;;;;;2.10;1.63;;;;;;;1.53;100.00;93339.44;2086898;28;20021;-82
2024/02/14 00:11:18;;;;;;;2.35;2.03;;;;;;;1.57;100.00;93342.13;2084105;28;20132;-82
2024/02/14 00:12:19;;;;;;;3.53;2.20;;;;;;;1.58;100.00;93341.00;2087270;28;20098;-83
2024/02/14 00:13:20;;;;;;;2.97;1.95;;;;;;;1.47;100.00;93344.25;2097861;28;20391;-82
2024/02/14 00:14:21;;;;;;;2.22;1.70;;;;;;;1.60;100.00;93351.97;2097676;28;20028;-81
2024/02/14 00:15:22;;;;;;;3.53;1.92;;;;;;;1.68;100.00;93338.56;2100038;28;20151;-82
2024/02/14 00:16:25;;;;;;;4.10;1.70;;;;;;;1.76;100.00;93339.44;2097836;28;20024;-82
2024/02/14 00:17:26;;;;;;;2.90;2.08;;;;;;;1.72;100.00;93349.16;2081504;28;20073;-83
2024/02/14 00:18:27;;;;;;;2.30;1.50;;;;;;;1.77;100.00;93349.59;2086792;28;20036;-82
2024/02/14 00:19:28;;;;;;;2.95;1.55;;;;;;;1.72;100.00;93344.66;2106275;28;20024;-81
2024/02/14 00:20:29;;;;;;;2.55;1.95;;;;;;;2.16;100.00;93353.94;2097862;28;20449;-82
2024/02/14 00:21:31;;;;;;;2.42;1.58;;;;;;;2.09;100.00;93351.19;2081620;28;20109;-81
2024/02/14 00:22:32;;;;;;;2.40;1.52;;;;;;;2.17;100.00;93355.44;2088470;28;20021;-82
2024/02/14 00:23:33;;;;;;;2.75;1.50;;;;;;;2.07;100.00;93356.81;2094438;28;20465;-82
2024/02/14 00:24:35;;;;;;;3.92;1.83;;;;;;;2.08;100.00;93355.69;2093719;28;20116;-82
2024/02/14 00:25:37;;;;;;;2.60;2.38;;;;;;;2.06;100.00;93349.25;2088799;28;20029;-83
2024/02/14 00:26:39;;;;;;;2.00;1.70;;;;;;;2.02;100.00;93357.13;2089303;28;20505;-83
2024/02/14 00:27:40;;;;;;;1.65;1.42;;;;;;;2.00;100.00;93354.84;2085500;28;20029;-83
2024/02/14 00:28:41;;;;;;;1.65;1.55;;;;;;;1.78;100.00;93353.00;2098601;28;20056;-82
2024/02/14 00:29:44;;;;;;;2.05;1.60;;;;;;;1.74;100.00;93350.31;2109650;28;20027;-82
2024/02/14 00:30:45;;;;;;;1.60;1.40;;;;;;;1.72;100.00;93351.78;2097509;28;20032;-81
2024/02/14 00:31:47;;;;;;;2.08;1.70;;;;;;;1.74;100.00;93358.22;2087292;28;20211;-82
2024/02/14 00:32:48;;;;;;;1.80;1.58;;;;;;;1.70;100.00;93351.38;2092171;28;20025;-81
2024/02/14 00:33:49;;;;;;;2.28;1.58;;;;;;;1.73;100.00;93350.66;2097668;28;20466;-83
2024/02/14 00:34:50;;;;;;;2.70;1.33;;;;;;;1.79;100.00;93351.88;2084200;28;20037;-83
2024/02/14 00:35:51;;;;;;;2.28;1.55;;;;;;;1.71;100.00;93351.03;2093075;28;20128;-82
2024/02/14 00:36:52;;;;;;;2.50;1.60;;;;;;;1.73;100.00;93355.94;2106254;28;20015;-83
2024/02/14 00:37:53;;;;;;;3.40;1.70;;;;;;;1.71;100.00;93356.31;2089501;28;20469;-82
2024/02/14 00:38:54;;;;;;;1.92;1.70;;;;;;;1.84;100.00;93354.22;2079025;28;20026;-82
2024/02/14 00:39:57;;;;;;;3.08;1.73;;;;;;;1.85;100.00;93352.38;2089539;28;20049;-81
2024/02/14 00:40:58;;;;;;;2.25;1.50;;;;;;;1.80;100.00;93360.53;2097822;28;20094;-83
2024/02/14 00:41:59;;;;;;;2.25;1.77;;;;;;;1.72;100.00;93357.06;2105792;28;20031;-82
2024/02/14 00:43:00;;;;;;;2.20;1.50;;;;;;;1.74;100.00;93354.81;2097835;28;20135;-82
2024/02/14 00:44:02;;;;;;;3.05;1.50;;;;;;;1.69;100.00;93361.16;2089597;28;20533;-83
2024/02/14 00:45:10;;;;;;;1.83;1.60;;;;;;;1.65;100.00;93364.84;2073797;28;20026;-82
2024/02/14 00:46:17;;;;;;;2.70;1.63;;;;;;;1.64;100.00;93365.97;2092072;28;20025;-81
2024/02/14 00:47:18;;;;;;;3.25;1.60;;;;;;;1.82;100.00;93364.34;2097658;28;20152;-81
2024/02/14 00:48:19;;;;;;;3.75;1.77;;;;;;;1.67;100.00;93367.91;2075665;28;20025;-81
2024/02/14 00:49:20;;;;;;;3.95;1.70;;;;;;;1.65;100.00;93372.75;2095421;28;20028;-82
2024/02/14 00:50:21;;;;;;;2.22;1.40;;;;;;;1.71;100.00;93369.47;2091526;28;20036;-82
2024/02/14 00:51:22;;;;;;;2.72;1.70;;;;;;;1.69;100.00;93365.66;2072838;28;20049;-82
2024/02/14 00:52:24;;;;;;;2.60;1.30;;;;;;;1.64;100.00;93360.69;2099741;28;20079;-81
2024/02/14 00:53:25;;;;;;;6.93;2.33;;;;;;;1.69;100.00;93353.25;2030728;28;20074;-83
2024/02/14 00:54:26;;;;;;;3.35;1.55;;;;;;;1.68;100.00;93359.63;2023500;28;20035;-81
2024/02/14 00:55:27;;;;;;;2.13;1.63;;;;;;;1.71;100.00;93360.78;2029716;28;20143;-82
2024/02/14 00:56:27;;;;;;;2.03;1.70;;;;;;;1.83;100.00;93355.34;1999331;28;21943;-81
2024/02/14 00:57:29;;;;;;;2.00;1.40;;;;;;;1.80;100.00;93358.69;2021819;28;20120;-81
2024/02/14 00:58:29;;;;;;;3.40;1.70;;;;;;;1.70;100.00;93354.75;2026989;28;20082;-83
2024/02/14 00:59:30;;;;;;;1.80;1.40;;;;;;;1.87;100.00;93368.56;2023201;28;20041;-82
2024/02/14 01:00:32;;;;;;;2.90;2.10;;;;;;;1.88;100.00;93355.03;2023926;28;20147;-82
2024/02/14 01:01:34;;;;;;;1.73;1.50;;;;;;;1.75;100.00;93354.47;2024155;28;20083;-83
2024/02/14 01:02:35;;;;;;;3.17;1.38;;;;;;;1.68;100.00;93357.00;2030226;28;23820;-83
2024/02/14 01:03:36;;;;;;;2.35;1.65;;;;;;;1.85;100.00;93357.63;2040373;28;20040;-82
2024/02/14 01:04:37;;;;;;;2.67;1.45;;;;;;;1.88;100.00;93362.19;2041859;28;20032;-82
2024/02/14 01:05:38;;;;;;;1.60;1.30;;;;;;;1.76;100.00;93366.53;2044754;28;20032;-83
2024/02/14 01:06:39;;;;;;;3.97;1.30;;;;;;;1.85;100.00;93363.66;2048264;28;20889;-83
2024/02/14 01:07:40;;;;;;;2.65;1.40;;;;;;;1.84;100.00;93348.94;2059843;28;20159;-83
2024/02/14 01:08:41;;;;;;;2.05;1.60;;;;;;;1.83;100.00;93355.34;2074099;28;20032;-83
2024/02/14 01:09:42;;;;;;;2.83;1.27;;;;;;;1.75;100.00;93356.34;2067920;28;20060;-82
2024/02/14 01:10:44;;;;;;;1.95;1.27;;;;;;;1.80;100.00;93358.69;2088071;28;20091;-82
2024/02/14 01:11:45;;;;;;;1.60;1.15;;;;;;;1.83;100.00;93359.84;2111545;28;20467;-82
2024/02/14 01:12:46;;;;;;;3.75;1.52;;;;;;;1.84;100.00;93359.47;2089320;28;20035;-83
2024/02/14 01:13:47;;;;;;;1.95;1.35;;;;;;;1.65;100.00;93370.88;2080887;28;20540;-82
2024/02/14 01:14:48;;;;;;;1.50;1.30;;;;;;;1.60;100.00;93373.06;2080934;28;20044;-83
2024/02/14 01:15:50;;;;;;;3.65;1.58;;;;;;;1.74;100.00;93366.13;2087251;28;20024;-81
2024/02/14 01:16:50;;;;;;;1.88;1.40;;;;;;;1.77;100.00;93372.56;2105870;28;20103;-82
2024/02/14 01:17:51;;;;;;;2.00;1.40;;;;;;;1.83;100.00;93373.03;2097455;28;20028;-82
2024/02/14 01:18:52;;;;;;;2.33;1.50;;;;;;;1.75;100.00;93372.16;2105970;28;20052;-84
2024/02/14 01:19:53;;;;;;;2.40;1.55;;;;;;;1.76;100.00;93371.81;2089457;28;20017;-82
2024/02/14 01:20:54;;;;;;;3.15;1.63;;;;;;;1.91;100.00;93369.38;2097455;28;20020;-82
2024/02/14 01:21:56;;;;;;;2.67;1.50;;;;;;;1.85;100.00;93376.84;2105714;28;20376;-83
2024/02/14 01:22:57;;;;;;;2.38;1.38;;;;;;;1.76;100.00;93381.59;2103154;28;20514;-82
2024/02/14 01:23:58;;;;;;;1.75;1.42;;;;;;;1.72;100.00;93372.88;2109407;28;20043;-82
2024/02/14 01:24:59;;;;;;;2.47;1.35;;;;;;;1.65;100.00;93372.75;2105784;28;20085;-83
2024/02/14 01:26:01;;;;;;;1.60;1.30;;;;;;;1.66;100.00;93371.63;2095299;28;20024;-82
2024/02/14 01:27:03;;;;;;;2.78;1.70;;;;;;;1.68;100.00;93370.19;2082421;28;20029;-82
2024/02/14 01:28:05;;;;;;;2.88;1.40;;;;;;;1.68;100.00;93375.44;2089258;28;20051;-82
2024/02/14 01:29:06;;;;;;;2.35;1.52;;;;;;;1.70;100.00;93362.66;2092310;28;20025;-81
2024/02/14 01:30:07;;;;;;;1.63;1.20;;;;;;;1.60;100.00;93371.16;2091193;28;20461;-82
2024/02/14 01:31:11;;;;;;;1.52;1.30;;;;;;;1.52;100.00;93372.94;2097287;28;20024;-83
2024/02/14 01:32:12;;;;;;;2.60;1.30;;;;;;;1.81;100.00;93368.13;2113239;28;20068;-82
2024/02/14 01:33:13;;;;;;;2.65;1.60;;;;;;;1.73;100.00;93361.97;2097667;28;20526;-82
2024/02/14 01:34:14;;;;;;;2.15;1.50;;;;;;;1.70;100.00;93375.84;2089064;28;20029;-82
2024/02/14 01:35:15;;;;;;;1.27;1.17;;;;;;;1.61;100.00;93370.06;2089138;28;20017;-82
2024/02/14 01:36:16;;;;;;;1.50;1.23;;;;;;;1.62;100.00;93366.31;2096222;28;20484;-84
2024/02/14 01:37:17;;;;;;;2.85;1.30;;;;;;;1.60;100.00;93368.53;2096483;28;20477;-83
2024/02/14 01:38:18;;;;;;;1.83;1.55;;;;;;;1.60;100.00;93373.06;2090279;28;20492;-83
2024/02/14 01:39:20;;;;;;;1.33;1.17;;;;;;;1.52;100.00;93374.81;2089866;28;20087;-82
2024/02/14 01:40:21;;;;;;;1.40;1.23;;;;;;;1.65;100.00;93375.38;2091809;28;20276;-82
2024/02/14 01:41:22;;;;;;;1.50;1.40;;;;;;;1.60;100.00;93375.69;2096459;28;20575;-83
2024/02/14 01:42:23;;;;;;;2.03;1.50;;;;;;;1.47;100.00;93377.72;2089193;28;20029;-81
2024/02/14 01:43:24;;;;;;;2.15;1.20;;;;;;;1.29;100.00;93376.69;2092313;28;20024;-82
2024/02/14 01:44:25;;;;;;;2.45;1.40;;;;;;;1.35;100.00;93375.25;2089084;28;20033;-81
2024/02/14 01:45:27;;;;;;;2.55;1.30;;;;;;;1.32;100.00;93379.38;2089283;28;20025;-82
2024/02/14 01:46:28;;;;;;;2.17;1.40;;;;;;;1.17;100.00;93382.84;2097100;28;20082;-83
2024/02/14 01:47:32;;;;;;;2.67;1.20;;;;;;;1.22;100.00;93370.16;2080863;28;20033;-83
2024/02/14 01:48:36;;;;;;;1.67;1.40;;;;;;;1.18;100.00;93369.34;2073404;28;20026;-82
2024/02/14 01:49:37;;;;;;;1.40;1.30;;;;;;;1.30;100.00;93380.81;2089624;28;20025;-83
2024/02/14 01:50:40;;;;;;;2.70;1.23;;;;;;;1.23;100.00;93371.69;2097311;28;20024;-84
2024/02/14 01:51:44;;;;;;;1.50;1.23;;;;;;;1.13;100.00;93380.16;2105204;28;20511;-82
2024/02/14 01:52:45;;;;;;;3.08;1.50;;;;;;;1.14;100.00;93375.66;2090939;28;20033;-84
2024/02/14 01:53:46;;;;;;;1.85;1.35;;;;;;;1.06;100.00;93372.16;2091409;28;20159;-82
2024/02/14 01:54:48;;;;;;;2.45;1.40;;;;;;;0.99;100.00;93366.75;2105461;28;20749;-83
2024/02/14 01:55:49;;;;;;;2.22;1.25;;;;;;;1.00;100.00;93371.66;2113642;28;20032;-82
2024/02/14 01:56:50;;;;;;;1.48;1.23;;;;;;;1.00;100.00;93371.66;2097429;28;20071;-83
2024/02/14 01:57:51;;;;;;;1.15;1.05;;;;;;;0.93;100.00;93362.88;2080611;28;20513;-83
2024/02/14 01:58:53;;;;;;;2.75;1.42;;;;;;;0.97;100.00;93366.34;2089005;28;20108;-84
2024/02/14 01:59:56;;;;;;;1.13;1.05;;;;;;;0.88;100.00;93366.56;2088875;28;20032;-82
2024/02/14 02:00:58;;;;;;;1.40;1.30;;;;;;;0.90;100.00;93366.22;2073477;28;20547;-81
2024/02/14 02:01:59;;;;;;;3.78;1.60;;;;;;;0.90;100.00;93369.59;2093656;28;20035;-84
2024/02/14 02:03:00;;;;;;;3.38;1.50;;;;;;;0.79;100.00;93365.22;2113419;28;20497;-82
2024/02/14 02:04:03;;;;;;;2.53;1.42;;;;;;;0.81;100.00;93363.03;2105639;28;20407;-82
2024/02/14 02:05:05;;;;;;;1.48;1.38;;;;;;;0.74;100.00;93369.66;2104433;28;20021;-83
2024/02/14 02:06:06;;;;;;;1.52;1.20;;;;;;;0.81;100.00;93366.41;2108308;28;20023;-82
2024/02/14 02:07:07;;;;;;;4.05;1.42;;;;;;;0.74;100.00;93358.38;2101803;28;20025;-82
2024/02/14 02:08:09;;;;;;;2.13;1.20;;;;;;;0.71;100.00;93365.13;2095930;28;20019;-81
2024/02/14 02:09:10;;;;;;;1.30;1.20;;;;;;;0.53;100.00;93353.50;2089810;28;20110;-82
2024/02/14 02:10:11;;;;;;;1.77;1.20;;;;;;;0.55;100.00;93356.53;2072622;28;20036;-82
2024/02/14 02:11:13;;;;;;;2.72;1.48;;;;;;;0.61;100.00;93359.63;2088273;28;20021;-82
2024/02/14 02:12:14;;;;;;;1.70;1.50;;;;;;;0.49;100.00;93363.94;2102029;28;20026;-82
2024/02/14 02:13:16;;;;;;;2.10;1.30;;;;;;;0.46;100.00;93359.34;2097261;28;20036;-82
2024/02/14 02:14:17;;;;;;;4.28;1.65;;;;;;;0.44;100.00;93356.31;2104872;28;20036;-82
2024/02/14 02:15:19;;;;;;;2.42;1.27;;;;;;;0.50;100.00;93347.03;2097207;28;20052;-83
2024/02/14 02:16:21;;;;;;;1.50;1.20;;;;;;;0.49;100.00;93350.03;2097463;28;20115;-83
2024/02/14 02:17:22;;;;;;;1.83;1.30;;;;;;;0.54;100.00;93355.00;2085188;28;20017;-83
2024/02/14 02:18:25;;;;;;;1.50;1.20;;;;;;;0.66;100.00;93348.81;2080793;28;20036;-83
2024/02/14 02:19:26;;;;;;;3.28;1.38;;;;;;;0.68;100.00;93354.53;2089100;28;20021;-83
2024/02/14 02:20:28;;;;;;;2.60;1.30;;;;;;;0.68;100.00;93351.88;2088873;28;20393;-82
2024/02/14 02:21:29;;;;;;;2.20;1.05;;;;;;;0.71;100.00;93351.97;2080756;28;20140;-83
2024/02/14 02:22:32;;;;;;;1.20;1.10;;;;;;;0.66;100.00;93346.19;2088930;28;20672;-84
2024/02/14 02:23:34;;;;;;;1.38;1.10;;;;;;;0.64;100.00;93351.06;2111092;28;20102;-83
2024/02/14 02:24:35;;;;;;;1.55;1.20;;;;;;;0.69;100.00;93350.78;2088567;28;20029;-83
2024/02/14 02:25:36;;;;;;;1.42;1.10;;;;;;;0.69;100.00;93348.16;2089141;28;20043;-81
2024/02/14 02:26:37;;;;;;;4.25;1.10;;;;;;;0.66;100.00;93341.72;2098053;28;20045;-82
2024/02/14 02:27:38;;;;;;;2.00;1.30;;;;;;;0.71;100.00;93346.69;2093513;28;20087;-83
2024/02/14 02:28:39;;;;;;;1.95;1.10;;;;;;;0.48;100.00;93338.75;2092978;28;20024;-82
2024/02/14 02:29:40;;;;;;;2.78;1.20;;;;;;;0.57;100.00;93343.03;2101262;28;20024;-83
2024/02/14 02:30:41;;;;;;;2.42;1.25;;;;;;;0.58;100.00;93340.06;2093613;28;20079;-82
2024/02/14 02:31:42;;;;;;;2.22;1.30;;;;;;;0.67;100.00;93337.22;2092109;28;20031;-82
2024/02/14 02:32:43;;;;;;;2.20;1.10;;;;;;;0.56;100.00;93341.50;2089206;28;20036;-82
2024/02/14 02:33:44;;;;;;;3.78;1.00;;;;;;;0.58;100.00;93340.06;2086609;28;20047;-84
2024/02/14 02:34:45;;;;;;;1.92;1.38;;;;;;;0.48;100.00;93337.97;2090864;28;20044;-83
2024/02/14 02:35:46;;;;;;;1.27;1.02;;;;;;;0.43;100.00;93335.63;2110397;28;20027;-84
2024/02/14 02:36:50;;;;;;;1.20;1.08;;;;;;;0.42;100.00;93334.09;2103983;28;20020;-80
2024/02/14 02:37:51;;;;;;;1.88;1.10;;;;;;;0.52;100.00;93327.53;2072539;28;20026;-82
2024/02/14 02:38:52;;;;;;;3.53;1.38;;;;;;;0.53;100.00;93321.94;2095959;28;20035;-82
2024/02/14 02:39:53;;;;;;;1.20;1.10;;;;;;;0.49;100.00;93318.47;2090977;28;20044;-82
2024/02/14 02:40:54;;;;;;;1.40;1.20;;;;;;;0.53;100.00;93329.81;2079946;28;20032;-81
2024/02/14 02:41:57;;;;;;;2.30;1.02;;;;;;;0.54;100.00;93328.72;2088742;28;20029;-83
2024/02/14 02:42:58;;;;;;;1.52;0.93;;;;;;;0.60;100.00;93329.94;2104174;28;20024;-83
2024/02/14 02:44:01;;;;;;;1.70;1.10;;;;;;;0.58;100.00;93326.16;2096850;28;20032;-81
2024/02/14 02:45:05;;;;;;;2.15;1.30;;;;;;;0.63;100.00;93331.88;2088999;28;20025;-83
2024/02/14 02:46:09;;;;;;;1.95;1.10;;;;;;;0.53;100.00;93334.31;2101236;28;20024;-82
2024/02/14 02:47:10;;;;;;;1.00;1.00;;;;;;;0.41;100.00;93332.59;2100936;28;20028;-82
2024/02/14 02:48:11;;;;;;;1.80;1.10;;;;;;;0.40;100.00;93336.34;2101323;28;20023;-81
2024/02/14 02:49:13;;;;;;;1.15;1.08;;;;;;;0.35;100.00;93345.25;2097078;28;20586;-84
2024/02/14 02:50:14;;;;;;;3.03;1.20;;;;;;;0.37;100.00;93348.28;2099539;28;20021;-81
2024/02/14 02:51:17;;;;;;;1.73;1.20;;;;;;;0.52;100.00;93345.94;2105357;28;20024;-83
2024/02/14 02:52:18;;;;;;;1.70;1.60;;;;;;;0.57;100.00;93345.66;2105323;28;20105;-83
2024/02/14 02:53:19;;;;;;;1.55;1.45;;;;;;;0.47;100.00;93349.59;2090984;28;20028;-84
2024/02/14 02:54:23;;;;;;;2.67;1.40;;;;;;;0.49;100.00;93344.78;2087480;28;20470;-83
2024/02/14 02:55:24;;;;;;;2.38;2.00;;;;;;;0.49;100.00;93347.41;2091535;28;20025;-81
2024/02/14 02:56:27;;;;;;;1.52;1.42;;;;;;;0.45;100.00;93349.94;2093176;28;20021;-84
2024/02/14 02:57:29;;;;;;;2.60;1.48;;;;;;;0.47;100.00;93339.84;2088856;28;20028;-82
2024/02/14 02:58:30;;;;;;;1.98;1.50;;;;;;;0.41;100.00;93348.38;2096653;28;20093;-81
2024/02/14 02:59:32;;;;;;;1.73;1.40;;;;;;;0.40;100.00;93352.09;2104505;28;20108;-82
2024/02/14 03:00:33;;;;;;;1.20;1.10;;;;;;;0.31;100.00;93344.41;2096871;28;20028;-82
2024/02/14 03:01:38;;;;;;;2.15;1.02;;;;;;;0.39;100.00;93350.56;2098788;28;20093;-82
2024/02/14 03:02:44;;;;;;;1.80;1.58;;;;;;;0.38;100.00;93338.53;2098720;28;20037;-84
2024/02/14 03:03:45;;;;;;;3.22;1.50;;;;;;;0.33;100.00;93342.19;2082587;28;20108;-82
2024/02/14 03:04:46;;;;;;;2.10;1.30;;;;;;;0.48;100.00;93335.34;2093134;28;20032;-84
2024/02/14 03:05:48;;;;;;;1.30;1.08;;;;;;;0.47;100.00;93337.22;2094981;28;20583;-82
2024/02/14 03:06:49;;;;;;;2.08;1.40;;;;;;;0.36;100.00;93330.25;2100015;28;20035;-82
2024/02/14 03:07:52;;;;;;;1.65;1.20;;;;;;;0.38;100.00;93328.00;2099163;28;20490;-82
2024/02/14 03:08:55;;;;;;;1.38;1.27;;;;;;;0.41;100.00;93337.84;2090814;28;20031;-82
2024/02/14 03:09:56;;;;;;;1.35;1.25;;;;;;;0.28;100.00;93328.56;2099967;28;20032;-83
2024/02/14 03:10:59;;;;;;;1.30;1.20;;;;;;;0.22;100.00;93334.09;2104085;28;20032;-82
2024/02/14 03:12:00;;;;;;;1.40;1.20;;;;;;;0.32;100.00;93324.91;2088814;28;20021;-82
2024/02/14 03:13:01;;;;;;;1.85;1.25;;;;;;;0.19;100.00;93334.78;2096484;28;20058;-83
2024/02/14 03:14:02;;;;;;;1.60;1.08;;;;;;;0.29;100.00;93344.00;2088310;28;20024;-84
2024/02/14 03:15:04;;;;;;;2.55;1.40;;;;;;;0.32;100.00;93330.16;2092160;28;20036;-83
2024/02/14 03:16:05;;;;;;;1.73;1.10;;;;;;;0.34;100.00;93338.44;2097216;28;20114;-83
2024/02/14 03:17:09;;;;;;;1.45;0.95;;;;;;;0.36;100.00;93341.50;2095377;28;20490;-83
2024/02/14 03:18:10;;;;;;;2.30;1.35;;;;;;;0.44;100.00;93334.50;2099268;28;20024;-83
2024/02/14 03:19:11;;;;;;;2.42;1.30;;;;;;;0.47;100.00;93337.22;2113628;28;20298;-84
2024/02/14 03:20:13;;;;;;;3.15;1.15;;;;;;;0.58;100.00;93334.81;2105083;28;20020;-82
2024/02/14 03:21:14;;;;;;;1.70;1.13;;;;;;;0.48;100.00;93340.59;2096937;28;20341;-84
2024/02/14 03:22:16;;;;;;;1.88;1.00;;;;;;;0.57;100.00;93350.91;2105215;28;20020;-84
2024/02/14 03:23:17;;;;;;;1.92;1.10;;;;;;;0.58;100.00;93341.94;2090633;28;20025;-84
2024/02/14 03:24:18;;;;;;;1.63;1.00;;;;;;;0.61;100.00;93349.88;2096496;28;20604;-85
2024/02/14 03:25:20;;;;;;;1.20;1.10;;;;;;;0.97;100.00;93343.41;2096821;28;20559;-82
2024/02/14 03:26:21;;;;;;;1.17;1.05;;;;;;;0.81;100.00;93348.00;2097892;28;20092;-83
2024/02/14 03:27:23;;;;;;;1.33;1.05;;;;;;;0.85;100.00;93346.19;2096709;28;20028;-83
2024/02/14 03:28:24;;;;;;;1.55;1.05;;;;;;;0.87;100.00;93348.47;2096831;28;20024;-83
2024/02/14 03:29:26;;;;;;;2.08;1.40;;;;;;;0.81;100.00;93357.78;2104577;28;20020;-84
2024/02/14 03:30:29;;;;;;;3.15;1.08;;;;;;;0.77;100.00;93341.16;2098745;28;20471;-85
2024/02/14 03:31:31;;;;;;;2.20;1.55;;;;;;;0.83;100.00;93335.25;2090101;28;20029;-83
2024/02/14 03:32:32;;;;;;;3.47;1.10;;;;;;;0.70;100.00;93344.41;2094683;28;20027;-84
2024/02/14 03:33:33;;;;;;;1.50;1.17;;;;;;;0.63;100.00;93349.53;2094388;28;20036;-83
2024/02/14 03:34:35;;;;;;;1.38;1.13;;;;;;;0.70;100.00;93353.06;2097215;28;20021;-83
2024/02/14 03:35:36;;;;;;;2.03;1.35;;;;;;;0.82;100.00;93354.78;2091532;28;20782;-83
2024/02/14 03:36:38;;;;;;;1.50;1.10;;;;;;;0.86;100.00;93357.47;2103378;28;20020;-83
2024/02/14 03:37:42;;;;;;;2.15;1.20;;;;;;;0.73;100.00;93354.25;2111906;28;20607;-84
2024/02/14 03:38:46;;;;;;;2.05;1.52;;;;;;;0.90;100.00;93353.03;2090115;28;20112;-83
2024/02/14 03:39:47;;;;;;;1.42;1.30;;;;;;;0.94;100.00;93356.50;2092694;28;20029;-84
2024/02/14 03:40:48;;;;;;;2.55;1.02;;;;;;;0.91;100.00;93350.06;2092750;28;20040;-83
2024/02/14 03:41:48;;;;;;;2.25;1.23;;;;;;;0.94;100.00;93354.63;2093947;28;20538;-82
2024/02/14 03:42:49;;;;;;;2.60;1.42;;;;;;;0.98;100.00;93355.47;2093993;28;20089;-83
2024/02/14 03:43:52;;;;;;;1.83;1.52;;;;;;;1.12;100.00;93354.19;2106645;28;20037;-84
2024/02/14 03:45:00;;;;;;;1.48;1.13;;;;;;;1.17;100.00;93353.91;2106501;28;20024;-83
2024/02/14 03:46:01;;;;;;;2.80;1.20;;;;;;;1.04;100.00;93348.03;2098145;28;20028;-82
2024/02/14 03:47:02;;;;;;;2.17;1.30;;;;;;;0.99;100.00;93343.81;2094570;28;20028;-83
2024/02/14 03:48:04;;;;;;;1.10;1.00;;;;;;;1.05;100.00;93344.28;2098142;28;20024;-82
2024/02/14 03:49:05;;;;;;;2.33;1.20;;;;;;;1.14;100.00;93339.59;2089035;28;20040;-82
2024/02/14 03:50:07;;;;;;;1.33;1.23;;;;;;;1.23;100.00;93339.34;2090764;28;20470;-83
2024/02/14 03:51:08;;;;;;;1.67;1.15;;;;;;;1.34;100.00;93336.88;2102101;28;20028;-82
2024/02/14 03:52:10;;;;;;;2.35;1.30;;;;;;;1.30;100.00;93338.69;2102002;28;20024;-84
2024/02/14 03:53:11;;;;;;;1.52;1.40;;;;;;;1.34;100.00;93334.25;2099385;28;20020;-82
2024/02/14 03:54:12;;;;;;;2.00;1.25;;;;;;;1.32;100.00;93334.59;2097680;28;20039;-84
2024/02/14 03:55:17;;;;;;;3.05;1.15;;;;;;;1.26;100.00;93351.78;2099710;28;20410;-83
2024/02/14 03:56:18;;;;;;;1.42;1.00;;;;;;;1.45;100.00;93351.75;2107321;28;20031;-83
2024/02/14 03:57:19;;;;;;;3.85;1.40;;;;;;;1.41;100.00;93342.28;2104753;28;20520;-83
2024/02/14 03:58:23;;;;;;;1.92;1.10;;;;;;;1.34;100.00;93342.16;2095875;28;20089;-83
2024/02/14 03:59:30;;;;;;;2.90;1.67;;;;;;;1.26;100.00;93342.03;2083020;28;20029;-83
2024/02/14 04:00:31;;;;;;;1.48;1.02;;;;;;;1.23;100.00;93348.00;2102441;28;20062;-83
2024/02/14 04:01:32;;;;;;;1.63;1.17;;;;;;;1.18;100.00;93348.28;2101403;28;20416;-83
2024/02/14 04:02:33;;;;;;;1.38;1.08;;;;;;;1.21;100.00;93349.47;2097271;28;20489;-82
2024/02/14 04:03:35;;;;;;;1.85;1.23;;;;;;;1.30;100.00;93343.97;2101234;28;20030;-83
2024/02/14 04:04:41;;;;;;;1.90;1.25;;;;;;;1.14;100.00;93347.47;2089699;28;20469;-83
2024/02/14 04:05:42;;;;;;;3.58;1.20;;;;;;;1.16;100.00;93360.28;2095737;28;20016;-82
2024/02/14 04:06:45;;;;;;;1.55;1.45;;;;;;;1.18;100.00;93350.91;2096985;28;20021;-82
2024/02/14 04:07:51;;;;;;;3.28;1.67;;;;;;;1.08;100.00;93361.25;2097838;28;20028;-83
2024/02/14 04:08:52;;;;;;;4.40;1.90;;;;;;;1.12;100.00;93365.47;2095427;28;20058;-82
2024/02/14 04:09:53;;;;;;;3.17;1.77;;;;;;;1.14;100.00;93354.59;2098121;28;20028;-84
2024/02/14 04:10:54;;;;;;;3.72;1.77;;;;;;;1.15;100.00;93349.00;2084174;28;20025;-83
2024/02/14 04:11:55;;;;;;;3.05;2.45;;;;;;;1.15;100.00;93353.50;2102343;28;20430;-83
2024/02/14 04:12:56;;;;;;;2.50;1.70;;;;;;;1.10;100.00;93351.91;2102042;28;20024;-83
2024/02/14 04:13:57;;;;;;;1.52;1.42;;;;;;;1.13;100.00;93355.69;2073410;28;20470;-83
2024/02/14 04:14:58;;;;;;;2.60;1.40;;;;;;;1.23;100.00;93360.41;2085252;28;20025;-83
2024/02/14 04:15:59;;;;;;;2.08;1.27;;;;;;;1.32;100.00;93363.56;2097469;28;20024;-84
2024/02/14 04:17:01;;;;;;;1.95;1.10;;;;;;;1.49;100.00;93370.22;2098054;28;20035;-83
2024/02/14 04:18:03;;;;;;;2.85;1.45;;;;;;;1.42;100.00;93381.41;2105950;28;20028;-84
2024/02/14 04:19:04;;;;;;;1.27;1.17;;;;;;;1.42;100.00;93370.88;2086483;28;20504;-82
2024/02/14 04:20:06;;;;;;;1.92;1.35;;;;;;;1.39;100.00;93365.56;2085136;28;20028;-81
2024/02/14 04:21:09;;;;;;;1.88;1.15;;;;;;;1.13;100.00;93371.50;2084224;28;20021;-82
2024/02/14 04:22:10;;;;;;;1.23;1.10;;;;;;;0.93;100.00;93368.91;2093850;28;20085;-84
2024/02/14 04:23:11;;;;;;;1.70;1.58;;;;;;;0.98;100.00;93375.75;2090823;28;20443;-82
2024/02/14 04:24:12;;;;;;;3.10;1.60;;;;;;;1.06;100.00;93380.03;2098483;28;20059;-83
2024/02/14 04:25:13;;;;;;;2.10;1.17;;;;;;;1.07;100.00;93386.81;2097787;28;20020;-83
2024/02/14 04:26:20;;;;;;;1.42;1.05;;;;;;;1.07;100.00;93383.44;2089739;28;20535;-82
2024/02/14 04:27:21;;;;;;;1.65;1.00;;;;;;;0.92;100.00;93393.72;2107892;28;20032;-84
2024/02/14 04:28:22;;;;;;;1.77;1.10;;;;;;;0.88;100.00;93392.88;2081183;28;20022;-84
2024/02/14 04:29:23;;;;;;;2.38;1.10;;;;;;;0.94;100.00;93402.00;2089380;28;20024;-84
2024/02/14 04:30:24;;;;;;;3.30;1.40;;;;;;;0.82;100.00;93398.75;2097922;28;20059;-82
2024/02/14 04:31:26;;;;;;;2.13;1.20;;;;;;;0.81;100.00;93391.97;2089564;28;20529;-84
2024/02/14 04:32:27;;;;;;;1.10;1.00;;;;;;;0.74;100.00;93390.72;2097177;28;20032;-84
2024/02/14 04:33:30;;;;;;;1.38;1.15;;;;;;;0.81;100.00;93382.19;2089270;28;20045;-82
2024/02/14 04:34:31;;;;;;;1.42;1.00;;;;;;;0.78;100.00;93393.41;2085745;28;20090;-84
2024/02/14 04:35:33;;;;;;;1.88;1.00;;;;;;;0.84;100.00;93399.19;2094277;28;20147;-84
2024/02/14 04:36:35;;;;;;;1.08;0.98;;;;;;;0.68;100.00;93401.88;2083777;28;20021;-83
2024/02/14 04:37:36;;;;;;;1.20;1.10;;;;;;;0.87;100.00;93403.72;2088384;28;20013;-84
2024/02/14 04:38:38;;;;;;;1.58;1.20;;;;;;;0.92;100.00;93400.81;2090607;28;20036;-82
2024/02/14 04:39:39;;;;;;;1.52;1.30;;;;;;;0.92;100.00;93398.97;2099350;28;21024;-82
2024/02/14 04:40:40;;;;;;;1.67;1.05;;;;;;;0.80;100.00;93406.25;2094750;28;20065;-83
2024/02/14 04:41:41;;;;;;;1.65;1.23;;;;;;;0.92;100.00;93401.59;2101947;28;20506;-84
2024/02/14 04:42:42;;;;;;;1.27;1.00;;;;;;;0.99;100.00;93408.84;2105992;28;20020;-82
2024/02/14 04:43:43;;;;;;;1.20;1.10;;;;;;;1.04;100.00;93405.19;2097827;28;20028;-83
2024/02/14 04:44:45;;;;;;;1.58;1.08;;;;;;;1.04;100.00;93407.81;2096117;28;20452;-83
2024/02/14 04:45:47;;;;;;;2.28;1.00;;;;;;;0.98;100.00;93407.34;2085215;28;20545;-82
2024/02/14 04:46:48;;;;;;;2.00;1.15;;;;;;;0.90;100.00;93405.69;2094155;28;20021;-83
2024/02/14 04:47:49;;;;;;;2.17;1.20;;;;;;;0.97;100.00;93409.22;2088355;28;20449;-83
2024/02/14 04:48:50;;;;;;;2.10;1.05;;;;;;;0.88;100.00;93410.50;2096861;28;20027;-83
2024/02/14 04:49:51;;;;;;;3.83;1.20;;;;;;;0.90;100.00;93406.44;2092796;28;20033;-83